Latest Coastal Weather Observations for Kingfish B

IDV60701

Issued at 6:21 pm EDT Sunday 26 March 2017 (issued every 10 minutes, with the page automatically refreshed every 10 minutes)

About coastal observations | Map of coastal stations | Coastal observations for VIC | Marine services | Other Formats
Station Details ID: 400139 Name: KINGFISH B (PLATFORM) Lat: -38.60 Lon: 148.19 Height: 31.4 m
Data from the previous 72 hours. | See also: Recent months for locations in Victoria
Date/Time
EDT
Temp
°C
Wind Pressure Rain since
9am
mm
Weather Cloud Vis
km
Sea
Height
m
Swell
Dir  Spd
kts
Gust
kts
hPa Trend Height
m
Period
s
Dir
26/06:00pm 19.1 SSE 6 7 1013.5 - - - - - - - - -
26/05:00pm 18.9 SSW 5 6 1014.1 - - - - - - - - -
26/04:10pm 19.0 SSW 6 8 1014.4 - - - - - - - - -
26/04:00pm 19.2 SSW 6 8 1014.5 - - - - - - - - -
26/03:10pm 20.8 SW 7 9 1015.0 - - - - - - - - -
26/03:00pm 21.2 SW 7 9 1015.1 - - - - - - - - -
26/02:10pm 21.3 SW 7 8 1015.4 - - - - - - - - -
26/02:00pm 21.5 SW 7 9 1015.4 - - - - - - - - -
26/01:10pm 20.7 SSW 8 9 1015.6 - - - - - - - - -
26/01:00pm 20.4 SSW 7 9 1015.5 - - - - - - - - -
26/12:10pm 22.2 SW 9 10 1015.4 - - - - - - - - -
26/12:00pm 22.3 SW 10 12 1015.4 - - - - - - - - -
26/11:00am 20.9 SW 8 9 1014.5 - - - - - - - - -
26/10:00am 20.9 CALM 0 0 1014.0 - - - - - - - - -
26/09:00am 20.8 E 4 5 1013.2 - - - - - - - - -
26/08:00am 20.3 SE 1 3 1012.5 - - - - - - - - -
26/07:00am 20.7 SSE 1 3 1012.1 - - - - - - - - -
26/06:00am 20.0 CALM 0 0 1012.2 - - - - - - - - -
26/05:00am 20.3 CALM 0 3 1012.5 - - - - - - - - -
26/04:10am 20.5 N 4 7 1012.5 - - - - - - - - -
26/04:00am 20.5 N 3 6 1012.4 - - - - - - - - -
26/03:10am 20.8 N 5 8 1012.5 - - - - - - - - -
26/03:00am 20.7 N 6 9 1012.5 - - - - - - - - -
26/02:10am 20.8 - 5 8 1012.7 - - - - - - - - -
26/02:00am 20.8 N 7 9 1012.6 - - - - - - - - -
26/01:10am 20.9 N 7 8 1012.8 - - - - - - - - -
26/01:00am 20.8 NNE 6 7 1012.9 - - - - - - - - -
26/12:00am 20.3 NE 4 5 1012.9 - - - - - - - - -
 
Date/Time
EDT
Temp
°C
Wind Pressure Rain since
9am
mm
Weather Cloud Vis
km
Sea
Height
m
Swell
Dir  Spd
kts
Gust
kts
hPa Trend Height
m
Period
s
Dir
25/09:10pm 19.9 NNE 2 5 1011.7 - - - - - - - - -
25/09:00pm 19.9 NNE 2 4 1011.7 - - - - - - - - -
25/08:00pm 20.2 N 3 5 1011.5 - - - - - - - - -
25/07:00pm 20.3 NNE 2 4 1011.3 - - - - - - - - -
25/06:00pm 20.3 N 2 5 1011.8 - - - - - - - - -
25/05:00pm 21.8 NNW 2 2 1012.1 - - - - - - - - -
25/04:00pm 21.4 NW 4 5 1012.3 - - - - - - - - -
25/03:10pm 21.0 NNW 6 7 1012.8 - - - - - - - - -
25/03:00pm 20.7 NNW 6 7 1012.9 - - - - - - - - -
25/02:10pm 21.0 NW 5 6 1013.7 - - - - - - - - -
25/02:00pm 21.0 NW 5 6 1013.6 - - - - - - - - -
25/01:10pm 20.9 N 3 6 1013.7 - - - - - - - - -
25/01:00pm 21.0 N 3 6 1013.7 - - - - - - - - -
25/12:10pm 20.0 N 2 6 1013.7 - - - - - - - - -
25/12:00pm 19.7 NNE 3 6 1013.7 - - - - - - - - -
25/11:10am 19.5 N 6 8 1013.5 - - - - - - - - -
25/11:00am 19.5 N 7 8 1013.5 - - - - - - - - -
25/10:10am 19.3 N 9 11 1013.2 - - - - - - - - -
25/10:00am 19.3 NNE 9 12 1013.0 - - - - - - - - -
25/09:10am 19.7 NE 15 17 1012.3 - - - - - - - - -
25/09:00am 19.7 NE 15 17 1012.4 - - - - - - - - -
25/08:00am 19.8 NNE 16 18 1013.1 - - - - - - - - -
25/07:00am 19.9 NE 20 23 1013.5 - - - - - - - - -
25/06:00am 20.0 NE 24 28 1013.7 - - - - - - - - -
25/05:00am 20.0 NE 27 32 1014.6 - - - - - - - - -
25/04:00am 19.8 NE 27 31 1015.4 - - - - - - - - -
25/03:00am 19.7 ENE 23 29 1016.2 - - - - - - - - -
25/02:10am 19.6 ENE 23 29 1016.6 - - - - - - - - -
25/02:00am 19.7 NE 25 30 1016.6 - - - - - - - - -
25/01:10am 19.5 ENE 22 29 1017.1 - - - - - - - - -
25/01:00am 19.4 ENE 21 28 1016.9 - - - - - - - - -
25/12:10am 19.3 ENE 21 27 1018.0 - - - - - - - - -
25/12:00am 19.2 ENE 24 29 1018.1 - - - - - - - - -
 
Date/Time
EDT
Temp
°C
Wind Pressure Rain since
9am
mm
Weather Cloud Vis
km
Sea
Height
m
Swell
Dir  Spd
kts
Gust
kts
hPa Trend Height
m
Period
s
Dir
24/11:10pm 19.0 ENE 21 27 1018.6 - - - - - - - - -
24/11:00pm 18.9 ENE 22 27 1018.7 - - - - - - - - -
24/10:10pm 18.8 ENE 23 28 1018.6 - - - - - - - - -
24/10:00pm 18.8 ENE 20 24 1019.1 - - - - - - - - -
24/09:10pm 18.7 ENE 24 28 1018.1 - - - - - - - - -
24/09:00pm 18.7 E 24 27 1018.0 - - - - - - - - -
24/08:10pm 18.7 E 23 28 1018.5 - - - - - - - - -
24/08:00pm 18.7 E 23 29 1018.6 - - - - - - - - -
24/07:10pm 18.8 E 20 24 1019.0 - - - - - - - - -
24/07:00pm 18.7 E 19 22 1019.2 - - - - - - - - -
24/06:10pm 18.9 E 16 20 1019.4 - - - - - - - - -
24/06:00pm 18.8 E 17 22 1019.5 - - - - - - - - -
24/05:00pm 18.7 E 19 24 1020.0 - - - - - - - - -
24/04:00pm 19.0 E 19 23 1020.6 - - - - - - - - -
24/03:00pm 19.2 E 15 19 1021.8 - - - - - - - - -
24/02:00pm 19.1 E 14 18 1022.4 - - - - - - - - -
24/01:00pm 18.8 ESE 12 14 1022.9 - - - - - - - - -
24/12:00pm 18.5 E 14 16 1022.4 - - - - - - - - -
24/11:00am 18.1 E 14 19 1022.0 - - - - - - - - -
24/10:10am 18.0 ESE 15 19 1021.7 - - - - - - - - -
24/10:00am 18.0 ESE 15 17 1021.6 - - - - - - - - -
24/09:10am 17.7 ESE 15 18 1021.3 - - - - - - - - -
24/09:00am 17.7 ESE 15 18 1021.3 - - - - - - - - -
24/08:10am 17.6 ESE 12 17 1021.8 - - - - - - - - -
24/08:00am 17.5 ESE 12 15 1021.7 - - - - - - - - -
24/07:10am 17.6 ESE 15 18 1021.3 - - - - - - - - -
24/07:00am 17.6 ESE 15 18 1021.4 - - - - - - - - -
24/06:10am 17.9 ESE 15 19 1021.4 - - - - - - - - -
24/06:00am 18.0 E 14 19 1021.3 - - - - - - - - -
24/05:10am 18.3 E 14 18 1021.7 - - - - - - - - -
24/05:00am 18.3 E 14 17 1021.9 - - - - - - - - -
24/04:10am 18.4 E 20 23 1021.8 - - - - - - - - -
24/04:00am 18.5 E 17 22 1021.8 - - - - - - - - -
24/03:10am 18.7 E 20 24 1021.9 - - - - - - - - -
24/03:00am 18.8 ESE 16 21 1022.2 - - - - - - - - -
24/02:10am 18.5 ESE 12 17 1022.9 - - - - - - - - -
24/02:00am 18.4 E 13 16 1023.0 - - - - - - - - -
24/01:10am 18.8 ESE 15 18 1022.7 - - - - - - - - -
24/01:00am 18.8 ESE 13 17 1022.7 - - - - - - - - -
24/12:10am 19.0 E 14 17 1022.5 - - - - - - - - -
24/12:00am 18.9 E 14 17 1022.4 - - - - - - - - -
 
Date/Time
EDT
Temp
°C
Wind Pressure Rain since
9am
mm
Weather Cloud Vis
km
Sea
Height
m
Swell
Dir  Spd
kts
Gust
kts
hPa Trend Height
m
Period
s
Dir
23/11:00pm 18.6 ESE 15 18 1022.2 - - - - - - - - -
23/10:00pm 18.7 ESE 14 17 1021.8 - - - - - - - - -
23/09:00pm 18.8 ESE 14 17 1021.5 - - - - - - - - -
23/08:00pm 18.8 ESE 16 21 1021.4 - - - - - - - - -
23/07:00pm 18.8 ESE 15 18 1021.3 - - - - - - - - -

Other Formats:

Comma delimited format used in spreadsheet applications
http://www.bom.gov.au/fwo/IDV60701/IDV60701.55039.axf

JavaScript Object Notation format (JSON) in row-major order
http://www.bom.gov.au/fwo/IDV60701/IDV60701.55039.json